createdAt,value
2017-08-03T05:31:41.760Z,18.9
2017-08-03T05:32:07.237Z,18.86
2017-08-03T05:32:32.688Z,18.93
2017-08-03T05:32:58.149Z,18.88
2017-08-03T05:33:23.597Z,18.93
2017-08-03T05:33:49.111Z,18.86
2017-08-03T05:34:14.639Z,18.89
2017-08-03T05:34:40.126Z,18.98
2017-08-03T05:35:05.602Z,18.96
2017-08-03T05:35:31.124Z,18.96
2017-08-03T05:35:56.592Z,19.07
2017-08-03T05:36:22.066Z,18.99
2017-08-03T05:36:47.509Z,19.04
2017-08-03T05:37:12.982Z,19.04
2017-08-03T05:37:38.449Z,19.12
2017-08-03T05:38:03.911Z,19.12
2017-08-03T05:38:29.393Z,19.09
2017-08-03T05:38:54.875Z,19.12
2017-08-03T05:39:20.342Z,19.22
2017-08-03T05:39:45.800Z,19.21
2017-08-03T05:40:11.247Z,19.16
2017-08-03T05:40:36.755Z,19.24
2017-08-03T05:41:02.200Z,19.24
2017-08-03T05:41:27.706Z,19.24
2017-08-03T05:41:53.142Z,19.22
2017-08-03T05:42:18.610Z,19.26
2017-08-03T05:42:44.102Z,19.22
2017-08-03T05:43:09.661Z,19.27
2017-08-03T05:43:35.112Z,19.21
2017-08-03T05:44:00.607Z,19.21
2017-08-03T05:44:26.088Z,19.27
2017-08-03T05:44:51.584Z,19.31
2017-08-03T05:45:17.050Z,19.26
2017-08-03T05:45:42.543Z,19.3
2017-08-03T05:46:08.035Z,19.37
2017-08-03T05:46:33.484Z,19.29
2017-08-03T05:46:58.927Z,19.3
2017-08-03T05:47:24.386Z,19.26
2017-08-03T05:47:49.889Z,19.27
2017-08-03T05:48:15.364Z,19.24
2017-08-03T05:48:40.851Z,19.29
2017-08-03T05:49:06.327Z,19.26
2017-08-03T05:49:31.764Z,19.37
2017-08-03T05:49:57.249Z,19.36
2017-08-03T05:50:22.741Z,19.41
2017-08-03T05:50:48.220Z,19.39
2017-08-03T05:51:13.657Z,19.41
2017-08-03T05:51:39.170Z,19.4
2017-08-03T05:52:04.606Z,19.47
2017-08-03T05:52:30.085Z,19.44
2017-08-03T05:52:55.593Z,19.44
2017-08-03T05:53:21.083Z,19.51
2017-08-03T05:53:46.576Z,19.48
2017-08-03T05:54:12.080Z,19.47
2017-08-03T05:54:37.569Z,19.49
2017-08-03T05:55:03.093Z,19.52
2017-08-03T05:55:28.517Z,19.44
2017-08-03T05:55:53.995Z,19.51
2017-08-03T05:56:19.473Z,19.44
2017-08-03T05:56:44.983Z,19.47
2017-08-03T05:57:10.492Z,19.51
2017-08-03T05:57:36.006Z,19.51
2017-08-03T05:58:01.486Z,19.56
2017-08-03T05:58:26.975Z,19.47
2017-08-03T05:58:52.459Z,19.49
2017-08-03T05:59:17.938Z,19.54
2017-08-03T05:59:43.400Z,19.54
2017-08-03T06:00:08.846Z,19.58
2017-08-03T06:00:34.356Z,19.47
2017-08-03T06:00:59.853Z,19.55
2017-08-03T06:01:25.324Z,19.58
2017-08-03T06:01:50.827Z,19.55
2017-08-03T06:02:16.312Z,19.54
2017-08-03T06:02:41.870Z,19.49
2017-08-03T06:03:07.350Z,19.47
2017-08-03T06:03:32.829Z,19.47
2017-08-03T06:03:58.304Z,19.55
2017-08-03T06:04:23.792Z,19.58
2017-08-03T06:04:49.196Z,19.62
2017-08-03T06:05:14.675Z,19.58
2017-08-03T06:05:40.237Z,19.62
2017-08-03T06:06:05.738Z,19.62
2017-08-03T06:06:31.241Z,19.62
2017-08-03T06:06:56.773Z,19.54
2017-08-03T06:07:22.221Z,19.54
2017-08-03T06:07:47.673Z,19.55
2017-08-03T06:08:13.128Z,19.58
2017-08-03T06:08:38.628Z,19.62
2017-08-03T06:09:04.140Z,19.63
2017-08-03T06:09:29.641Z,19.63
2017-08-03T06:09:55.126Z,19.66
2017-08-03T06:10:20.616Z,19.59
2017-08-03T06:10:46.077Z,19.63
2017-08-03T06:11:11.529Z,19.66
2017-08-03T06:11:37.000Z,19.62
2017-08-03T06:12:02.500Z,19.58
2017-08-03T06:12:27.967Z,19.62
2017-08-03T06:12:53.419Z,19.63
2017-08-03T06:13:18.964Z,19.56
2017-08-03T06:14:27.612Z,19.58
2017-08-03T06:14:53.096Z,19.58
2017-08-03T06:15:18.569Z,19.7
2017-08-03T06:15:44.034Z,19.64
2017-08-03T06:16:09.533Z,19.69
2017-08-03T06:16:34.985Z,19.63
2017-08-03T06:17:00.455Z,19.73
2017-08-03T06:17:25.970Z,19.74
2017-08-03T06:17:51.404Z,19.71
2017-08-03T06:18:16.877Z,19.74
2017-08-03T06:18:42.346Z,19.7
2017-08-03T06:19:07.822Z,19.7
2017-08-03T06:19:33.327Z,19.71
2017-08-03T06:19:58.766Z,19.73
2017-08-03T06:20:24.217Z,19.7
2017-08-03T06:20:49.785Z,19.73
2017-08-03T06:21:15.260Z,19.73
2017-08-03T06:21:40.738Z,19.74
2017-08-03T06:22:06.207Z,19.74
2017-08-03T06:22:31.687Z,19.77
2017-08-03T06:22:57.166Z,19.73
2017-08-03T06:23:22.646Z,19.71
2017-08-03T06:23:48.144Z,19.71
2017-08-03T06:24:13.594Z,19.71
2017-08-03T06:24:39.057Z,19.76
2017-08-03T06:25:04.514Z,19.74
2017-08-03T06:25:29.964Z,19.73
2017-08-03T06:25:55.446Z,19.71
2017-08-03T06:26:20.914Z,19.74
2017-08-03T06:26:46.372Z,19.71
2017-08-03T06:27:11.864Z,19.71
2017-08-03T06:27:37.357Z,19.76
2017-08-03T06:28:02.827Z,19.73
2017-08-03T06:28:28.308Z,19.85
2017-08-03T06:28:53.789Z,19.76
2017-08-03T06:29:19.300Z,19.81
2017-08-03T06:29:44.749Z,19.76
2017-08-03T06:30:10.206Z,19.79
2017-08-03T06:30:35.672Z,19.77
2017-08-03T06:31:01.245Z,19.77
2017-08-03T06:31:26.750Z,19.81
2017-08-03T06:31:52.160Z,19.82
2017-08-03T06:32:17.640Z,19.76
2017-08-03T06:32:43.147Z,19.81
2017-08-03T06:33:08.716Z,19.81
2017-08-03T06:33:34.285Z,19.81
2017-08-03T06:33:59.767Z,19.79
2017-08-03T06:34:25.310Z,19.84
2017-08-03T06:34:50.821Z,19.88
2017-08-03T06:35:16.302Z,19.74
2017-08-03T06:35:41.798Z,19.84
2017-08-03T06:36:07.270Z,19.81
2017-08-03T06:36:32.756Z,19.82
2017-08-03T06:36:58.243Z,19.79
2017-08-03T06:37:23.833Z,19.84
2017-08-03T06:37:49.297Z,19.77
2017-08-03T06:38:14.782Z,19.76
2017-08-03T06:38:40.219Z,19.88
2017-08-03T06:39:05.749Z,19.76
2017-08-03T06:39:31.284Z,19.74
2017-08-03T06:39:56.775Z,19.85
2017-08-03T06:40:22.268Z,19.76
2017-08-03T06:40:47.760Z,19.79
2017-08-03T06:41:13.242Z,19.77
2017-08-03T06:41:38.692Z,19.85
2017-08-03T06:42:04.176Z,19.84
2017-08-03T06:42:29.630Z,19.82
2017-08-03T06:42:55.125Z,19.85
2017-08-03T06:43:20.573Z,19.81
2017-08-03T06:43:46.054Z,19.77
2017-08-03T06:44:11.568Z,19.88
2017-08-03T06:44:37.089Z,19.88
2017-08-03T06:45:02.577Z,19.85
2017-08-03T06:45:27.994Z,19.81
2017-08-03T06:45:53.472Z,19.89
2017-08-03T06:46:18.946Z,19.88
2017-08-03T06:46:44.427Z,19.86
2017-08-03T06:47:09.905Z,19.89
2017-08-03T06:47:35.432Z,19.92
2017-08-03T06:48:00.897Z,19.96
2017-08-03T06:48:26.392Z,19.88
2017-08-03T06:48:51.937Z,19.95
2017-08-03T06:49:17.372Z,19.92
2017-08-03T06:50:15.856Z,19.96
2017-08-03T06:50:41.355Z,19.92
2017-08-03T06:51:06.825Z,19.95
2017-08-03T06:51:32.298Z,19.99
2017-08-03T06:51:57.769Z,19.99
2017-08-03T06:52:23.250Z,20
2017-08-03T06:52:48.697Z,19.99
2017-08-03T06:53:14.191Z,20.04
2017-08-03T06:53:39.670Z,20.02
2017-08-03T06:54:05.139Z,20.02
2017-08-03T06:54:30.618Z,19.95
2017-08-03T06:54:56.082Z,20.06
2017-08-03T06:55:21.533Z,20.1
2017-08-03T06:55:47.046Z,20.03
2017-08-03T06:56:12.552Z,20
2017-08-03T06:56:38.027Z,20.07
2017-08-03T06:57:03.482Z,20.09
2017-08-03T06:57:28.964Z,20.11
2017-08-03T06:57:54.527Z,20.11
2017-08-03T06:58:19.995Z,20.04
2017-08-03T06:58:45.488Z,20.14
2017-08-03T06:59:10.993Z,20.03
2017-08-03T06:59:36.550Z,20.13
2017-08-03T07:00:02.036Z,20.13
2017-08-03T07:00:27.543Z,20.16
2017-08-03T07:00:53.078Z,20.13
2017-08-03T07:01:18.552Z,20.14
2017-08-03T07:01:44.025Z,20.18
2017-08-03T07:02:09.502Z,20.1
2017-08-03T07:02:34.986Z,20.16
2017-08-03T07:03:00.433Z,20.13
2017-08-03T07:03:25.911Z,20.18
2017-08-03T07:03:51.407Z,20.25
2017-08-03T07:04:16.937Z,20.24
2017-08-03T07:04:42.392Z,20.29
2017-08-03T07:05:07.893Z,20.26
2017-08-03T07:05:33.406Z,20.22
2017-08-03T07:05:58.843Z,20.22
2017-08-03T07:06:24.303Z,20.28
2017-08-03T07:06:49.790Z,20.34
2017-08-03T07:07:15.289Z,20.32
2017-08-03T07:07:40.755Z,20.25
2017-08-03T07:08:06.271Z,20.34
2017-08-03T07:08:31.791Z,20.28
2017-08-03T07:08:57.266Z,20.28
2017-08-03T07:09:22.764Z,20.29
2017-08-03T07:09:48.228Z,20.31
2017-08-03T07:10:13.719Z,20.26
2017-08-03T07:10:39.308Z,20.4
2017-08-03T07:11:04.771Z,20.37
2017-08-03T07:11:30.253Z,20.43
2017-08-03T07:11:55.745Z,20.37
2017-08-03T07:12:21.231Z,20.43
2017-08-03T07:12:46.699Z,20.44
2017-08-03T07:13:12.190Z,20.43
2017-08-03T07:13:37.675Z,20.5
2017-08-03T07:14:03.155Z,20.5
2017-08-03T07:14:28.628Z,20.44
2017-08-03T07:14:54.102Z,20.47
2017-08-03T07:15:19.564Z,20.47
2017-08-03T07:15:45.041Z,20.44
2017-08-03T07:16:10.556Z,20.44
2017-08-03T07:16:36.022Z,20.47
2017-08-03T07:17:01.560Z,20.51
2017-08-03T07:17:27.066Z,20.51
2017-08-03T07:17:52.544Z,20.55
2017-08-03T07:18:18.068Z,20.58
2017-08-03T07:18:43.547Z,20.5
2017-08-03T07:19:09.032Z,20.6
2017-08-03T07:19:34.515Z,20.62
2017-08-03T07:20:00.001Z,20.6
2017-08-03T07:20:25.477Z,20.63
2017-08-03T07:20:50.970Z,20.6
2017-08-03T07:21:16.452Z,20.67
2017-08-03T07:21:41.951Z,20.69
2017-08-03T07:22:07.491Z,20.77
2017-08-03T07:22:32.931Z,20.78
2017-08-03T07:22:58.412Z,20.7
2017-08-03T07:23:23.914Z,20.82
2017-08-03T07:23:49.397Z,20.8
2017-08-03T07:24:14.855Z,20.74
2017-08-03T07:24:40.334Z,20.9
2017-08-03T07:25:05.789Z,20.82
2017-08-03T07:25:31.297Z,20.81
2017-08-03T07:25:56.758Z,20.88
2017-08-03T07:26:22.279Z,20.95
2017-08-03T07:26:47.757Z,20.95
2017-08-03T07:27:13.217Z,20.92
2017-08-03T07:27:38.693Z,20.93
2017-08-03T07:28:04.157Z,21.02
2017-08-03T07:28:29.651Z,21.11
2017-08-03T07:28:55.107Z,20.99
2017-08-03T07:29:20.580Z,21.03
2017-08-03T07:29:46.049Z,21.2
2017-08-03T07:30:11.532Z,21.24
2017-08-03T07:30:37.034Z,21.15
2017-08-03T07:31:02.525Z,21.24
2017-08-03T07:31:28.026Z,21.25
2017-08-03T07:31:53.487Z,21.27
2017-08-03T07:32:18.956Z,21.24
2017-08-03T07:32:44.424Z,21.27
2017-08-03T07:33:09.891Z,21.3
2017-08-03T07:33:35.368Z,21.35
2017-08-03T07:34:00.871Z,21.39
2017-08-03T07:34:26.402Z,21.39
2017-08-03T07:34:51.838Z,21.46
2017-08-03T07:35:17.312Z,21.46
2017-08-03T07:35:42.819Z,21.45
2017-08-03T07:36:08.255Z,21.46
2017-08-03T07:36:33.722Z,21.48
2017-08-03T07:36:59.215Z,21.58
2017-08-03T07:37:24.712Z,21.62
2017-08-03T07:37:50.168Z,21.58
2017-08-03T07:38:15.647Z,21.62
2017-08-03T07:38:41.107Z,21.6
2017-08-03T07:39:06.636Z,21.6
2017-08-03T07:39:32.181Z,21.57
2017-08-03T07:39:57.668Z,21.58
2017-08-03T07:40:23.132Z,21.62
2017-08-03T07:40:48.610Z,21.54
2017-08-03T07:41:14.132Z,21.57
2017-08-03T07:41:39.645Z,21.6
2017-08-03T07:42:05.144Z,21.6
2017-08-03T07:42:30.633Z,21.58
2017-08-03T07:42:56.076Z,21.55
2017-08-03T07:43:21.630Z,21.55
2017-08-03T07:43:47.097Z,21.6
2017-08-03T07:44:12.580Z,21.62
2017-08-03T07:44:38.051Z,21.6
2017-08-03T07:45:03.498Z,21.57
2017-08-03T07:45:28.997Z,21.61
2017-08-03T07:45:54.450Z,21.64
2017-08-03T07:46:19.953Z,21.66
2017-08-03T07:46:45.537Z,21.58
2017-08-03T07:47:10.985Z,21.66
2017-08-03T07:47:36.529Z,21.66
2017-08-03T07:48:01.996Z,21.72
2017-08-03T07:48:27.468Z,21.73
2017-08-03T07:48:52.959Z,21.64
2017-08-03T07:49:18.451Z,21.66
2017-08-03T07:49:43.916Z,21.66
2017-08-03T07:50:09.422Z,21.69
2017-08-03T07:50:34.924Z,21.7
2017-08-03T07:51:00.352Z,21.7
2017-08-03T07:51:25.852Z,21.69
2017-08-03T07:51:51.331Z,21.77
2017-08-03T07:52:16.823Z,21.72
2017-08-03T07:52:42.254Z,21.66
2017-08-03T07:53:07.714Z,21.77
2017-08-03T07:53:33.190Z,21.8
2017-08-03T07:53:58.725Z,21.83
2017-08-03T07:54:24.153Z,21.85
2017-08-03T07:54:49.615Z,21.96
2017-08-03T07:55:15.123Z,21.98
2017-08-03T07:55:40.593Z,21.96
2017-08-03T07:56:06.052Z,22
2017-08-03T07:56:31.574Z,22
2017-08-03T07:56:56.999Z,22.17
2017-08-03T07:57:22.482Z,22.17
2017-08-03T07:57:47.982Z,22.18
2017-08-03T07:58:13.485Z,22.18
2017-08-03T07:58:38.950Z,22.22
2017-08-03T07:59:04.439Z,22.26
2017-08-03T07:59:29.921Z,22.32
2017-08-03T07:59:55.410Z,22.36
2017-08-03T08:00:20.943Z,22.43
2017-08-03T08:00:46.466Z,22.36
2017-08-03T08:01:11.908Z,22.43
2017-08-03T08:01:37.434Z,22.51
2017-08-03T08:02:02.882Z,22.48
2017-08-03T08:02:28.376Z,22.54
2017-08-03T08:02:53.890Z,22.57
2017-08-03T08:03:19.402Z,22.62
2017-08-03T08:03:44.921Z,22.6
2017-08-03T08:04:10.368Z,22.69
2017-08-03T08:04:35.834Z,22.66
2017-08-03T08:05:01.298Z,22.73
2017-08-03T08:05:26.775Z,22.68
2017-08-03T08:05:52.269Z,22.73
2017-08-03T08:06:17.722Z,22.73
2017-08-03T08:06:43.165Z,22.75
2017-08-03T08:07:08.666Z,22.81
2017-08-03T08:07:34.118Z,22.78
2017-08-03T08:07:59.716Z,22.76
2017-08-03T08:08:25.160Z,22.91
2017-08-03T08:08:50.636Z,22.88
2017-08-03T08:09:16.095Z,22.93
2017-08-03T08:09:41.604Z,22.99
2017-08-03T08:10:07.102Z,23.09
2017-08-03T08:10:32.548Z,23.18
2017-08-03T08:10:58.082Z,23.23
2017-08-03T08:11:23.551Z,23.28
2017-08-03T08:11:49.007Z,23.32
2017-08-03T08:12:14.503Z,23.37
2017-08-03T08:12:40.032Z,23.51
2017-08-03T08:13:05.483Z,23.55
2017-08-03T08:13:30.944Z,23.56
2017-08-03T08:13:56.435Z,23.65
2017-08-03T08:14:21.905Z,23.66
2017-08-03T08:14:47.370Z,23.66
2017-08-03T08:15:12.878Z,23.74
2017-08-03T08:15:38.383Z,23.71
2017-08-03T08:16:03.795Z,23.74
2017-08-03T08:16:29.353Z,23.74
2017-08-03T08:16:54.828Z,23.87
2017-08-03T08:17:20.292Z,23.84
2017-08-03T08:17:45.786Z,23.86
2017-08-03T08:18:11.284Z,23.88
2017-08-03T08:18:36.758Z,23.88
2017-08-03T08:19:02.238Z,23.8
2017-08-03T08:19:27.719Z,23.8
2017-08-03T08:19:53.190Z,23.84
2017-08-03T08:20:18.728Z,23.88
2017-08-03T08:20:44.183Z,23.84
2017-08-03T08:21:09.719Z,23.83
2017-08-03T08:21:35.199Z,23.78
2017-08-03T08:22:00.669Z,23.88
2017-08-03T08:22:26.153Z,23.86
2017-08-03T08:22:51.617Z,23.77
2017-08-03T08:23:17.113Z,23.91
2017-08-03T08:23:42.591Z,23.83
2017-08-03T08:24:08.117Z,23.83
2017-08-03T08:24:33.596Z,23.76
2017-08-03T08:24:59.062Z,23.74
2017-08-03T08:25:24.526Z,23.71
2017-08-03T08:25:50.084Z,23.78
2017-08-03T08:26:15.547Z,23.68
2017-08-03T08:26:41.022Z,23.66
2017-08-03T08:27:06.510Z,23.68
2017-08-03T08:27:31.974Z,23.65
2017-08-03T08:27:57.432Z,23.63
2017-08-03T08:28:22.896Z,23.61
2017-08-03T08:28:48.367Z,23.56
2017-08-03T08:29:13.877Z,23.61
2017-08-03T08:30:02.201Z,23.58
2017-08-03T08:30:27.691Z,23.5
2017-08-03T08:30:53.149Z,23.47
2017-08-03T08:31:18.610Z,23.55
2017-08-03T08:31:44.079Z,23.36
2017-08-03T08:32:09.538Z,23.37
2017-08-03T08:32:34.991Z,23.27
2017-08-03T08:33:00.488Z,23.25
2017-08-03T08:33:26.014Z,23.31
2017-08-03T08:33:51.508Z,23.21
2017-08-03T08:34:17.031Z,23.12
2017-08-03T08:34:42.495Z,23.18
2017-08-03T08:35:07.987Z,23.17
2017-08-03T08:35:33.525Z,23.09
2017-08-03T08:35:58.986Z,23.1
2017-08-03T08:36:24.448Z,22.94
2017-08-03T08:36:49.901Z,22.96
2017-08-03T08:37:15.374Z,22.94
2017-08-03T08:37:40.873Z,22.94
2017-08-03T08:38:06.357Z,22.96
2017-08-03T08:38:31.818Z,22.93
2017-08-03T08:38:57.294Z,22.85
2017-08-03T08:39:22.807Z,22.85
2017-08-03T08:39:48.295Z,22.85
2017-08-03T08:40:13.784Z,22.83
2017-08-03T08:40:39.287Z,22.85
2017-08-03T08:41:04.761Z,22.83
2017-08-03T08:41:30.252Z,22.87
2017-08-03T08:41:55.734Z,22.78
2017-08-03T08:42:21.204Z,22.84
2017-08-03T08:42:46.678Z,22.78
2017-08-03T08:43:12.229Z,22.8
2017-08-03T08:43:37.681Z,22.81
2017-08-03T08:44:03.146Z,22.84
2017-08-03T08:44:28.632Z,22.78
2017-08-03T08:44:54.159Z,22.78
2017-08-03T08:45:19.623Z,22.8
2017-08-03T08:45:45.093Z,22.85
2017-08-03T08:46:10.571Z,22.8
2017-08-03T08:46:36.041Z,22.88
2017-08-03T08:47:01.538Z,22.85
2017-08-03T08:47:27.006Z,22.78
2017-08-03T08:47:52.511Z,22.84
2017-08-03T08:48:17.963Z,22.8
2017-08-03T08:48:43.446Z,22.78
2017-08-03T08:49:08.929Z,22.81
2017-08-03T08:49:34.400Z,22.8
2017-08-03T08:49:59.910Z,22.83
2017-08-03T08:50:25.413Z,22.83
2017-08-03T08:50:50.912Z,22.87
2017-08-03T08:51:16.380Z,22.83
2017-08-03T08:51:41.879Z,22.84
2017-08-03T08:52:07.327Z,22.8
2017-08-03T08:52:32.793Z,22.8
2017-08-03T08:52:58.331Z,22.8
2017-08-03T08:53:23.816Z,22.76
2017-08-03T08:53:49.213Z,22.72
2017-08-03T08:54:14.700Z,22.7
2017-08-03T08:54:40.184Z,22.7
2017-08-03T08:55:05.663Z,22.66
2017-08-03T08:55:31.150Z,22.59
2017-08-03T08:55:56.636Z,22.68
2017-08-03T08:56:22.097Z,22.62
2017-08-03T08:56:47.519Z,22.6
2017-08-03T08:57:12.975Z,22.6
2017-08-03T08:57:38.467Z,22.63
2017-08-03T08:58:03.970Z,22.51
2017-08-03T08:58:29.434Z,22.59
2017-08-03T08:58:54.917Z,22.54
2017-08-03T08:59:20.442Z,22.6
2017-08-03T08:59:45.957Z,22.59
2017-08-03T09:00:11.407Z,22.5
2017-08-03T09:00:36.913Z,22.54
2017-08-03T09:01:02.424Z,22.47
2017-08-03T09:01:27.852Z,22.48
2017-08-03T09:01:53.360Z,22.54
2017-08-03T09:02:18.820Z,22.51
2017-08-03T09:02:44.268Z,22.53
2017-08-03T09:03:09.752Z,22.51
2017-08-03T09:03:35.199Z,22.47
2017-08-03T09:04:00.677Z,22.51
2017-08-03T09:04:26.161Z,22.38
2017-08-03T09:04:51.623Z,22.51
2017-08-03T09:05:17.117Z,22.48
2017-08-03T09:05:42.584Z,22.41
2017-08-03T09:06:08.092Z,22.35
2017-08-03T09:06:33.527Z,22.35
2017-08-03T09:06:59.085Z,22.39
2017-08-03T09:07:24.577Z,22.35
2017-08-03T09:07:50.050Z,22.41
2017-08-03T09:08:15.515Z,22.39
2017-08-03T09:08:40.992Z,22.39
2017-08-03T09:09:06.478Z,22.36
2017-08-03T09:09:32.006Z,22.38
2017-08-03T09:09:57.480Z,22.41
2017-08-03T09:10:22.960Z,22.38
2017-08-03T09:10:48.476Z,22.35
2017-08-03T09:11:13.961Z,22.32
2017-08-03T09:11:39.429Z,22.36
2017-08-03T09:12:04.909Z,22.38
2017-08-03T09:12:30.414Z,22.36
2017-08-03T09:12:55.887Z,22.35
2017-08-03T09:13:21.355Z,22.29
2017-08-03T09:13:46.884Z,22.3
2017-08-03T09:14:12.325Z,22.28
2017-08-03T09:14:37.838Z,22.23
2017-08-03T09:15:03.350Z,22.23
2017-08-03T09:15:28.811Z,22.25
2017-08-03T09:15:54.294Z,22.26
2017-08-03T09:16:19.792Z,22.15
2017-08-03T09:16:45.262Z,22.23
2017-08-03T09:17:10.748Z,22.26
2017-08-03T09:17:36.249Z,22.25
2017-08-03T09:18:01.743Z,22.15
2017-08-03T09:18:27.256Z,22.23
2017-08-03T09:18:52.728Z,22.23
2017-08-03T09:19:18.279Z,22.26
2017-08-03T09:19:43.678Z,22.26
2017-08-03T09:20:09.107Z,22.36
2017-08-03T09:20:34.606Z,22.35
2017-08-03T09:21:00.101Z,22.35
2017-08-03T09:21:25.588Z,22.41
2017-08-03T09:21:51.063Z,22.39
2017-08-03T09:22:16.529Z,22.36
2017-08-03T09:22:42.013Z,22.47
2017-08-03T09:23:07.492Z,22.48
2017-08-03T09:23:32.974Z,22.47
2017-08-03T09:23:58.430Z,22.57
2017-08-03T09:24:23.919Z,22.53
2017-08-03T09:24:49.409Z,22.63
2017-08-03T09:25:14.911Z,22.59
2017-08-03T09:25:40.446Z,22.62
2017-08-03T09:26:05.939Z,22.73
2017-08-03T09:27:04.423Z,22.75
2017-08-03T09:27:29.911Z,22.76
2017-08-03T09:27:55.434Z,22.83
2017-08-03T09:28:20.912Z,22.87
2017-08-03T09:28:46.368Z,22.81
2017-08-03T09:29:11.821Z,22.88
2017-08-03T09:29:37.301Z,22.88
2017-08-03T09:30:02.763Z,22.94
2017-08-03T09:30:28.283Z,22.94
2017-08-03T09:30:53.799Z,22.98
2017-08-03T09:31:19.243Z,22.98
2017-08-03T09:31:44.765Z,23.03
2017-08-03T09:32:10.236Z,23.08
2017-08-03T09:32:35.738Z,23.1
2017-08-03T09:33:01.202Z,23.18
2017-08-03T09:33:26.671Z,23.24
2017-08-03T09:33:52.144Z,23.28
2017-08-03T09:34:17.638Z,23.39
2017-08-03T09:34:43.109Z,23.43
2017-08-03T09:35:08.599Z,23.56
2017-08-03T09:35:34.117Z,23.59
2017-08-03T09:35:59.591Z,23.68
2017-08-03T09:36:25.070Z,23.68
2017-08-03T09:36:50.544Z,23.78
2017-08-03T09:37:16.085Z,23.86
2017-08-03T09:37:41.577Z,23.92
2017-08-03T09:38:07.036Z,23.93
2017-08-03T09:38:32.507Z,24.06
2017-08-03T09:38:57.971Z,24.05
2017-08-03T09:39:23.461Z,24.08
2017-08-03T09:39:48.942Z,24.16
2017-08-03T09:40:14.438Z,24.17
2017-08-03T09:40:39.897Z,24.21
2017-08-03T09:41:05.370Z,24.21
2017-08-03T09:41:30.831Z,24.32
2017-08-03T09:41:56.328Z,24.29
2017-08-03T09:42:21.843Z,24.32
2017-08-03T09:42:47.427Z,24.35
2017-08-03T09:43:13.042Z,24.33
2017-08-03T09:43:38.572Z,24.47
2017-08-03T09:44:38.103Z,24.33
2017-08-03T09:45:03.580Z,24.35
2017-08-03T09:45:29.053Z,24.39
2017-08-03T09:45:54.552Z,24.35
2017-08-03T09:46:20.048Z,24.33
2017-08-03T09:46:45.541Z,24.4
2017-08-03T09:47:11.015Z,24.39
2017-08-03T09:47:36.536Z,24.38
2017-08-03T09:48:02.076Z,24.35
2017-08-03T09:48:27.529Z,24.42
2017-08-03T09:48:53.169Z,24.35
2017-08-03T09:49:18.659Z,24.35
2017-08-03T09:49:44.135Z,24.38
2017-08-03T09:50:09.606Z,24.39
2017-08-03T09:50:35.041Z,24.47
2017-08-03T09:51:00.531Z,24.38
2017-08-03T09:51:26.003Z,24.47
2017-08-03T09:51:51.508Z,24.39
2017-08-03T09:52:17.043Z,24.35
2017-08-03T09:52:42.523Z,24.5
2017-08-03T09:53:07.990Z,24.51
2017-08-03T09:53:33.507Z,24.39
2017-08-03T09:53:59.007Z,24.48
2017-08-03T09:54:24.522Z,24.5
2017-08-03T09:54:50.056Z,24.45
2017-08-03T09:55:15.526Z,24.53
2017-08-03T09:55:40.984Z,24.55
2017-08-03T09:56:06.466Z,24.55
2017-08-03T09:56:31.929Z,24.48
2017-08-03T09:56:57.391Z,24.55
2017-08-03T09:57:22.877Z,24.51
2017-08-03T09:57:48.338Z,24.48
2017-08-03T09:58:13.793Z,24.48
2017-08-03T09:58:39.268Z,24.5
2017-08-03T09:59:04.767Z,24.5
2017-08-03T09:59:30.242Z,24.5
2017-08-03T09:59:55.724Z,24.57
2017-08-03T10:00:21.227Z,24.45
2017-08-03T10:00:46.717Z,24.45
2017-08-03T10:01:12.173Z,24.43
2017-08-03T10:01:37.625Z,24.39
2017-08-03T10:02:03.115Z,24.35
2017-08-03T10:02:28.595Z,24.38
2017-08-03T10:02:54.065Z,24.35
2017-08-03T10:03:19.546Z,24.38
2017-08-03T10:03:45.071Z,24.39
2017-08-03T10:04:10.585Z,24.38
2017-08-03T10:04:36.095Z,24.43
2017-08-03T10:05:01.539Z,24.39
2017-08-03T10:05:27.034Z,24.32
2017-08-03T10:05:52.493Z,24.33
2017-08-03T10:06:17.952Z,24.39
2017-08-03T10:06:43.418Z,24.39
2017-08-03T10:07:08.854Z,24.35
2017-08-03T10:07:34.350Z,24.4
2017-08-03T10:07:59.950Z,24.51
2017-08-03T10:08:25.433Z,24.43
2017-08-03T10:08:50.911Z,24.54
2017-08-03T10:09:16.411Z,24.51
2017-08-03T10:09:41.872Z,24.51
2017-08-03T10:10:07.386Z,24.53
2017-08-03T10:10:32.842Z,24.57
2017-08-03T10:10:58.308Z,24.53
2017-08-03T10:11:23.755Z,24.55
2017-08-03T10:11:49.269Z,24.61
2017-08-03T10:12:14.774Z,24.66
2017-08-03T10:12:40.239Z,24.58
2017-08-03T10:13:05.786Z,24.61
2017-08-03T10:13:31.292Z,24.61
2017-08-03T10:13:56.813Z,24.63
2017-08-03T10:14:22.316Z,24.73
2017-08-03T10:14:47.820Z,24.66
2017-08-03T10:15:13.282Z,24.63
2017-08-03T10:15:38.758Z,24.65
2017-08-03T10:16:04.227Z,24.66
2017-08-03T10:16:29.744Z,24.68
2017-08-03T10:16:55.235Z,24.68
2017-08-03T10:17:20.748Z,24.66
2017-08-03T10:17:46.271Z,24.66
2017-08-03T10:18:11.775Z,24.74
2017-08-03T10:18:37.304Z,24.69
2017-08-03T10:19:02.773Z,24.69
2017-08-03T10:19:28.215Z,24.69
2017-08-03T10:19:53.714Z,24.73
2017-08-03T10:20:19.190Z,24.8
2017-08-03T10:20:44.696Z,24.74
2017-08-03T10:21:10.214Z,24.74
2017-08-03T10:21:35.779Z,24.73
2017-08-03T10:22:01.238Z,24.7
2017-08-03T10:22:26.706Z,24.68
2017-08-03T10:22:52.193Z,24.65
2017-08-03T10:23:17.670Z,24.61
2017-08-03T10:23:43.132Z,24.58
2017-08-03T10:24:08.634Z,24.61
2017-08-03T10:24:34.107Z,24.54
2017-08-03T10:24:59.626Z,24.68
2017-08-03T10:25:25.108Z,24.58
2017-08-03T10:25:50.605Z,24.66
2017-08-03T10:26:16.059Z,24.57
2017-08-03T10:26:41.577Z,24.69
2017-08-03T10:27:07.060Z,24.69
2017-08-03T10:27:32.519Z,24.6
2017-08-03T10:27:57.995Z,24.63
2017-08-03T10:28:23.496Z,24.6
2017-08-03T10:28:48.944Z,24.6
2017-08-03T10:29:14.405Z,24.6
2017-08-03T10:29:39.906Z,24.66
2017-08-03T10:30:05.402Z,24.66
2017-08-03T10:30:30.877Z,24.69
2017-08-03T10:30:56.373Z,24.69
2017-08-03T10:31:21.871Z,24.73
2017-08-03T10:31:47.330Z,24.66
2017-08-03T10:32:12.799Z,24.68
2017-08-03T10:32:38.271Z,24.68
2017-08-03T10:33:03.751Z,24.7
2017-08-03T10:33:29.255Z,24.6
2017-08-03T10:33:54.754Z,24.74
2017-08-03T10:34:20.251Z,24.74
2017-08-03T10:34:45.729Z,24.81
2017-08-03T10:35:11.241Z,24.7
2017-08-03T10:35:36.732Z,24.81
2017-08-03T10:36:02.170Z,24.81
2017-08-03T10:36:27.667Z,24.77
2017-08-03T10:36:53.220Z,24.77
2017-08-03T10:37:18.686Z,24.84
2017-08-03T10:37:44.150Z,24.81
2017-08-03T10:38:09.644Z,24.81
2017-08-03T10:38:35.116Z,24.85
2017-08-03T10:39:00.606Z,24.8
2017-08-03T10:39:26.062Z,24.84
2017-08-03T10:39:51.548Z,24.77
2017-08-03T10:40:16.988Z,24.78
2017-08-03T10:40:42.462Z,24.8
2017-08-03T10:41:07.955Z,24.77
2017-08-03T10:41:33.456Z,24.88
2017-08-03T10:41:58.954Z,24.92
2017-08-03T10:42:24.451Z,24.96
2017-08-03T10:42:49.886Z,24.92
2017-08-03T10:43:15.353Z,24.93
2017-08-03T10:43:40.846Z,24.99
2017-08-03T10:44:06.321Z,24.93
2017-08-03T10:44:31.815Z,24.98
2017-08-03T10:44:57.297Z,24.99
2017-08-03T10:45:22.764Z,25.03
2017-08-03T10:45:48.249Z,24.98
2017-08-03T10:46:13.754Z,25.04
2017-08-03T10:46:39.212Z,25.1
2017-08-03T10:47:04.695Z,24.98
2017-08-03T10:47:30.171Z,24.95
2017-08-03T10:47:55.647Z,24.96
2017-08-03T10:48:21.107Z,24.98
2017-08-03T10:48:46.575Z,24.88
2017-08-03T10:49:12.065Z,24.84
2017-08-03T10:49:37.514Z,24.74
2017-08-03T10:50:02.996Z,24.76
2017-08-03T10:50:28.456Z,24.74
2017-08-03T10:50:53.941Z,24.8
2017-08-03T10:51:19.404Z,24.69
2017-08-03T10:51:44.851Z,24.69
2017-08-03T10:52:10.325Z,24.74
2017-08-03T10:52:35.780Z,24.7
2017-08-03T10:53:01.243Z,24.6
2017-08-03T10:53:26.720Z,24.54
2017-08-03T10:53:52.211Z,24.51
2017-08-03T10:54:17.678Z,24.48
2017-08-03T10:54:43.139Z,24.42
2017-08-03T10:55:08.627Z,24.39
2017-08-03T10:55:34.136Z,24.38
2017-08-03T10:55:59.604Z,24.45
2017-08-03T10:56:25.067Z,24.3
2017-08-03T10:56:50.527Z,24.36
2017-08-03T10:57:16.015Z,24.32
2017-08-03T10:57:41.488Z,24.28
2017-08-03T10:58:07.013Z,24.21
2017-08-03T10:58:32.470Z,24.2
2017-08-03T10:58:57.957Z,24.23
2017-08-03T10:59:23.445Z,24.17
2017-08-03T10:59:48.986Z,24.14
2017-08-03T11:00:14.444Z,24.16
2017-08-03T11:00:39.890Z,24.13
2017-08-03T11:01:05.399Z,24.05
2017-08-03T11:01:30.873Z,24.05
2017-08-03T11:01:56.350Z,24.11
2017-08-03T11:02:21.840Z,23.99
2017-08-03T11:02:47.308Z,24.02
2017-08-03T11:03:12.781Z,23.99
2017-08-03T11:03:38.287Z,23.88